sensor_id;sensor_type;location;lat;lon;timestamp;P1;durP1;ratioP1;P2;durP2;ratioP2
28625;SDS011;18905;42.668;23.364;2023-05-10T02:10:55;8.93;;;6.75;;
28625;SDS011;18905;42.668;23.364;2023-05-10T02:13:23;10.73;;;6.47;;
28625;SDS011;18905;42.668;23.364;2023-05-10T02:15:51;7.05;;;5.22;;
28625;SDS011;18905;42.668;23.364;2023-05-10T02:18:18;6.88;;;5.03;;
28625;SDS011;18905;42.668;23.364;2023-05-10T02:20:46;7.50;;;5.50;;
28625;SDS011;18905;42.668;23.364;2023-05-10T02:23:13;7.00;;;5.07;;
28625;SDS011;18905;42.668;23.364;2023-05-10T02:25:42;6.15;;;4.45;;
28625;SDS011;18905;42.668;23.364;2023-05-10T02:28:09;6.75;;;4.82;;
28625;SDS011;18905;42.668;23.364;2023-05-10T02:30:37;9.82;;;5.40;;
28625;SDS011;18905;42.668;23.364;2023-05-10T02:33:04;6.95;;;5.72;;
28625;SDS011;18905;42.668;23.364;2023-05-10T02:35:31;7.32;;;5.45;;
28625;SDS011;18905;42.668;23.364;2023-05-10T02:37:58;10.50;;;5.38;;
28625;SDS011;18905;42.668;23.364;2023-05-10T02:40:25;6.60;;;5.15;;
28625;SDS011;18905;42.668;23.364;2023-05-10T03:40:39;11.55;;;6.40;;
28625;SDS011;18905;42.668;23.364;2023-05-10T04:02:35;11.40;;;6.40;;
28625;SDS011;18905;42.668;23.364;2023-05-10T04:17:56;10.13;;;5.63;;
28625;SDS011;18905;42.668;23.364;2023-05-10T04:22:52;8.45;;;6.25;;
28625;SDS011;18905;42.668;23.364;2023-05-10T04:25:17;8.90;;;6.95;;
28625;SDS011;18905;42.668;23.364;2023-05-10T04:27:43;15.15;;;7.25;;
28625;SDS011;18905;42.668;23.364;2023-05-10T12:53:12;14.85;;;7.00;;
28625;SDS011;18905;42.668;23.364;2023-05-10T13:39:38;16.40;;;9.77;;
28625;SDS011;18905;42.668;23.364;2023-05-10T17:43:06;10.75;;;7.78;;
28625;SDS011;18905;42.668;23.364;2023-05-10T17:45:32;9.88;;;7.45;;
28625;SDS011;18905;42.668;23.364;2023-05-10T17:47:59;11.02;;;7.57;;
28625;SDS011;18905;42.668;23.364;2023-05-10T17:50:28;13.07;;;7.68;;
28625;SDS011;18905;42.668;23.364;2023-05-10T19:17:24;11.50;;;8.95;;
28625;SDS011;18905;42.668;23.364;2023-05-10T20:51:55;20.17;;;11.45;;
28625;SDS011;18905;42.668;23.364;2023-05-10T20:56:56;18.08;;;11.27;;
28625;SDS011;18905;42.668;23.364;2023-05-10T21:04:32;22.25;;;12.40;;
28625;SDS011;18905;42.668;23.364;2023-05-10T21:12:08;17.50;;;13.07;;
28625;SDS011;18905;42.668;23.364;2023-05-10T21:17:03;15.48;;;11.38;;
28625;SDS011;18905;42.668;23.364;2023-05-10T21:35:00;16.58;;;10.13;;
28625;SDS011;18905;42.668;23.364;2023-05-10T21:37:26;15.20;;;10.43;;
28625;SDS011;18905;42.668;23.364;2023-05-10T21:39:55;15.80;;;10.23;;
28625;SDS011;18905;42.668;23.364;2023-05-10T21:52:41;17.85;;;9.63;;
28625;SDS011;18905;42.668;23.364;2023-05-10T21:55:07;13.32;;;10.07;;
28625;SDS011;18905;42.668;23.364;2023-05-10T21:57:34;19.90;;;11.05;;
28625;SDS011;18905;42.668;23.364;2023-05-10T22:00:00;15.10;;;10.18;;
28625;SDS011;18905;42.668;23.364;2023-05-10T22:02:27;14.18;;;9.20;;
28625;SDS011;18905;42.668;23.364;2023-05-10T22:04:53;19.48;;;10.73;;
28625;SDS011;18905;42.668;23.364;2023-05-10T22:07:22;15.55;;;9.27;;
28625;SDS011;18905;42.668;23.364;2023-05-10T22:09:48;16.73;;;10.18;;
28625;SDS011;18905;42.668;23.364;2023-05-10T22:28:00;15.23;;;10.60;;
28625;SDS011;18905;42.668;23.364;2023-05-10T22:30:57;17.95;;;11.15;;
28625;SDS011;18905;42.668;23.364;2023-05-10T22:33:23;19.30;;;10.98;;
28625;SDS011;18905;42.668;23.364;2023-05-10T22:35:51;17.08;;;10.80;;
28625;SDS011;18905;42.668;23.364;2023-05-10T22:38:17;15.57;;;10.57;;
28625;SDS011;18905;42.668;23.364;2023-05-10T22:40:46;16.40;;;11.75;;
28625;SDS011;18905;42.668;23.364;2023-05-10T22:43:15;17.25;;;11.60;;
28625;SDS011;18905;42.668;23.364;2023-05-10T22:45:41;14.95;;;11.30;;
28625;SDS011;18905;42.668;23.364;2023-05-10T22:48:10;13.73;;;10.23;;
28625;SDS011;18905;42.668;23.364;2023-05-10T22:50:36;13.43;;;10.93;;
28625;SDS011;18905;42.668;23.364;2023-05-10T22:53:02;15.55;;;10.73;;
28625;SDS011;18905;42.668;23.364;2023-05-10T23:11:11;12.82;;;8.05;;
28625;SDS011;18905;42.668;23.364;2023-05-10T23:13:42;14.80;;;7.53;;
28625;SDS011;18905;42.668;23.364;2023-05-10T23:16:50;8.20;;;7.00;;
28625;SDS011;18905;42.668;23.364;2023-05-10T23:19:39;13.02;;;7.25;;
28625;SDS011;18905;42.668;23.364;2023-05-10T23:22:05;9.77;;;7.30;;
28625;SDS011;18905;42.668;23.364;2023-05-10T23:29:42;10.02;;;6.55;;
28625;SDS011;18905;42.668;23.364;2023-05-10T23:32:13;12.45;;;7.18;;
28625;SDS011;18905;42.668;23.364;2023-05-10T23:35:18;15.73;;;6.88;;
